Adamsburg, Pennsylvania
Current Conditions -  °F | °C
As of 3:55 AM on Friday 21 Nov 2014 (Local Time) from KLBE Reporting Station
Clear Clear  
Wind Chill:   Ceiling: Unl
Heat Index: 19°   Visibility: 10mi
Dew Point: 14°   Wind: 8mph
Humidity: 80%   Direction: 240°WSW
Pressure: 30.24"   Gusts: NA
Location:  40.31°N, 79.66°W
Report Text: KLBE 210855Z AUTO 24007KT 10SM CLR M07/M10 A3024 RMK AO2
Loading
Personal Weather Stations






























Interactive Weather Map New forecast layout! Learn more

10-Day Weather Forecast

Advertisements
Track Severe Weather on mobile